Time;durP1;ratioP1;P1;durP2;ratioP2;P2;SDS_P1;SDS_P2;PMS_P1;PMS_P2;Temp;Humidity;BMP_temperature;BMP_pressure;BME280_temperature;BME280_humidity;BME280_pressure;Samples;Min_cycle;Max_cycle;Signal;HPM_P1;HPM_P2
2021/12/10 00:00:33;;;;;;;11.73;6.72;;;4.40;99.90;;;;;;5088940;28;20047;-81
2021/12/10 00:03:03;;;;;;;9.13;5.35;;;4.20;99.90;;;;;;5074159;28;20052;-81
2021/12/10 00:05:38;;;;;;;12.32;6.13;;;4.20;99.90;;;;;;5073026;28;20037;-80
2021/12/10 00:08:05;;;;;;;10.15;5.53;;;4.20;99.90;;;;;;5070480;28;20080;-81
2021/12/10 00:10:36;;;;;;;12.77;7.07;;;4.20;99.90;;;;;;5069527;28;20054;-81
2021/12/10 00:13:04;;;;;;;13.65;6.82;;;4.20;99.90;;;;;;5088696;28;20052;-81
2021/12/10 00:15:32;;;;;;;27.30;8.10;;;4.20;99.90;;;;;;5079885;28;20398;-79
2021/12/10 00:18:01;;;;;;;13.68;5.82;;;4.40;99.90;;;;;;5088475;28;20048;-81
2021/12/10 00:20:32;;;;;;;11.27;6.63;;;4.20;99.90;;;;;;5074150;28;20101;-81
2021/12/10 00:23:02;;;;;;;11.48;5.68;;;4.10;99.90;;;;;;5082926;28;20050;-80
2021/12/10 00:25:38;;;;;;;18.05;6.38;;;4.10;99.90;;;;;;5089832;28;20046;-81
2021/12/10 00:28:18;;;;;;;8.40;6.32;;;4.20;99.90;;;;;;5081230;28;20712;-81
2021/12/10 00:32:16;;;;;;;9.23;5.68;;;4.20;99.90;;;;;;5079357;28;20040;-80
2021/12/10 00:34:36;;;;;;;14.63;6.68;;;4.20;99.90;;;;;;5073870;28;20051;-80
2021/12/10 00:37:08;;;;;;;9.13;5.65;;;4.20;99.90;;;;;;5075428;28;20040;-81
2021/12/10 00:39:51;;;;;;;8.40;5.28;;;4.20;99.90;;;;;;5083751;28;20055;-82
2021/12/10 00:42:21;;;;;;;8.95;7.43;;;4.20;99.90;;;;;;5075445;28;20044;-82
2021/12/10 00:44:47;;;;;;;9.40;5.68;;;4.40;99.90;;;;;;5066792;28;20052;-82
2021/12/10 00:47:12;;;;;;;;;;;4.20;99.90;;;;;;5103849;28;20133;-82
2021/12/10 00:49:39;;;;;;;22.00;4.78;;;4.20;99.90;;;;;;5083620;28;19963;-82
2021/12/10 00:52:06;;;;;;;9.48;4.22;;;4.20;99.90;;;;;;5076546;28;20035;-82
2021/12/10 00:54:32;;;;;;;9.30;5.65;;;4.30;99.90;;;;;;5067527;28;20133;-80
2021/12/10 00:56:59;;;;;;;11.32;6.68;;;4.30;99.90;;;;;;5068925;28;20426;-80
2021/12/10 00:59:25;;;;;;;20.60;5.53;;;4.50;99.90;;;;;;5063294;28;20115;-82
2021/12/10 01:01:52;;;;;;;6.65;4.80;;;4.30;99.90;;;;;;5082517;28;20152;-82
2021/12/10 01:04:23;;;;;;;8.25;4.63;;;4.20;99.90;;;;;;5071817;28;20051;-81
2021/12/10 01:06:51;;;;;;;8.13;5.10;;;4.40;99.90;;;;;;5086648;28;20067;-81
2021/12/10 01:09:21;;;;;;;11.35;6.20;;;4.20;99.90;;;;;;5080128;28;20028;-82
2021/12/10 01:11:53;;;;;;;17.88;6.05;;;4.20;99.90;;;;;;5073460;28;20068;-81
2021/12/10 01:14:34;;;;;;;6.50;3.47;;;4.20;99.90;;;;;;5080953;28;20130;-82
2021/12/10 01:25:36;;;;;;;7.32;4.80;;;4.20;99.90;;;;;;5088856;28;20108;-82
2021/12/10 01:28:03;;;;;;;5.07;4.68;;;4.30;99.90;;;;;;5071250;28;20048;-81
2021/12/10 01:30:32;;;;;;;6.22;4.40;;;4.30;99.90;;;;;;5089077;28;20063;-81
2021/12/10 01:33:02;;;;;;;8.65;4.53;;;4.30;99.90;;;;;;5093220;28;20511;-80
2021/12/10 01:35:36;;;;;;;15.48;6.13;;;4.20;99.90;;;;;;5079148;28;20145;-81
2021/12/10 01:38:04;;;;;;;6.60;4.45;;;4.20;99.90;;;;;;5067519;28;20393;-82
2021/12/10 01:40:30;;;;;;;3.95;3.60;;;4.20;99.90;;;;;;5088633;28;20127;-82
2021/12/10 01:43:06;;;;;;;7.43;4.97;;;4.40;99.90;;;;;;5094275;28;20044;-79
2021/12/10 01:45:44;;;;;;;6.90;4.70;;;4.20;99.90;;;;;;5078520;28;20047;-82
2021/12/10 01:48:20;;;;;;;7.32;4.63;;;4.20;99.90;;;;;;5067977;28;20036;-81
2021/12/10 01:50:47;;;;;;;10.93;3.22;;;4.20;99.90;;;;;;5088543;28;20135;-80
2021/12/10 01:53:15;;;;;;;5.22;3.45;;;4.30;99.90;;;;;;5078562;28;20071;-79
2021/12/10 01:55:44;;;;;;;6.60;5.47;;;4.30;99.90;;;;;;5082726;28;20036;-81
2021/12/10 01:58:15;;;;;;;7.20;4.72;;;4.30;99.90;;;;;;5082463;28;20044;-81
2021/12/10 02:00:44;;;;;;;9.73;4.38;;;4.30;99.90;;;;;;5089013;28;20048;-81
2021/12/10 02:03:09;;;;;;;5.82;4.07;;;4.20;99.90;;;;;;5085308;28;20044;-81
2021/12/10 02:05:36;;;;;;;5.32;3.03;;;4.30;99.90;;;;;;5078779;28;20098;-81
2021/12/10 02:08:02;;;;;;;;;;;4.40;99.90;;;;;;5081061;28;20435;-82
2021/12/10 02:10:29;;;;;;;5.50;4.85;;;4.30;99.90;;;;;;5082080;28;19924;-82
2021/12/10 02:12:57;;;;;;;7.45;5.40;;;4.30;99.90;;;;;;5077818;28;20362;-82
2021/12/10 02:15:26;;;;;;;9.82;4.82;;;4.20;99.90;;;;;;5081922;28;20727;-79
2021/12/10 02:17:53;;;;;;;5.80;4.85;;;4.20;99.90;;;;;;5088101;28;20508;-82
2021/12/10 02:20:22;;;;;;;9.43;3.83;;;4.60;99.90;;;;;;5069511;28;20105;-79
2021/12/10 02:22:50;;;;;;;8.63;4.82;;;4.20;99.90;;;;;;5091867;28;20052;-79
2021/12/10 02:25:29;;;;;;;9.43;5.35;;;4.20;99.90;;;;;;5094018;28;20114;-82
2021/12/10 02:27:56;;;;;;;7.93;5.55;;;4.20;99.90;;;;;;5082055;28;20064;-82
2021/12/10 02:30:25;;;;;;;9.02;3.63;;;4.20;99.90;;;;;;5093073;28;20616;-80
2021/12/10 02:32:51;;;;;;;5.45;3.33;;;4.20;99.90;;;;;;5078908;28;20040;-81
2021/12/10 02:35:17;;;;;;;6.38;4.93;;;4.20;99.90;;;;;;5076369;28;20044;-79
2021/12/10 02:37:46;;;;;;;7.20;4.22;;;4.20;99.90;;;;;;5093054;28;20047;-79
2021/12/10 02:40:15;;;;;;;5.30;3.75;;;4.20;99.90;;;;;;5093243;28;20047;-79
2021/12/10 02:42:41;;;;;;;6.10;5.00;;;4.10;99.90;;;;;;5092587;28;20048;-80
2021/12/10 02:45:10;;;;;;;9.50;4.15;;;4.10;99.90;;;;;;5080221;28;20532;-79
2021/12/10 02:47:36;;;;;;;4.22;3.85;;;4.10;99.90;;;;;;5098526;28;20072;-79
2021/12/10 02:50:05;;;;;;;5.18;4.32;;;4.20;99.90;;;;;;5079768;28;20089;-81
2021/12/10 02:52:31;;;;;;;11.73;4.35;;;4.10;99.90;;;;;;5080790;28;20040;-80
2021/12/10 02:54:58;;;;;;;5.07;3.08;;;4.10;99.90;;;;;;5093707;28;20036;-81
2021/12/10 02:57:25;;;;;;;11.63;4.07;;;4.20;99.90;;;;;;5076275;28;20076;-80
2021/12/10 02:59:51;;;;;;;20.98;4.97;;;4.10;99.90;;;;;;5090255;28;20089;-79
2021/12/10 03:02:19;;;;;;;;;;;4.40;99.90;;;;;;5094395;28;20054;-80
2021/12/10 03:04:45;;;;;;;7.10;4.78;;;4.20;99.90;;;;;;5076651;28;19916;-80
2021/12/10 03:07:14;;;;;;;6.45;3.17;;;4.10;99.90;;;;;;5087215;28;20036;-80
2021/12/10 03:09:45;;;;;;;7.43;5.50;;;4.10;99.90;;;;;;5082106;28;20040;-80
2021/12/10 03:12:13;;;;;;;9.57;4.00;;;4.30;99.90;;;;;;5073331;28;20037;-81
2021/12/10 03:14:41;;;;;;;5.55;3.92;;;4.10;99.90;;;;;;5088317;28;20405;-83
2021/12/10 03:17:11;;;;;;;4.70;3.72;;;4.40;99.90;;;;;;5088232;28;20032;-81
2021/12/10 03:19:38;;;;;;;4.60;4.10;;;4.10;99.90;;;;;;5077974;28;20207;-80
2021/12/10 03:22:06;;;;;;;8.05;5.20;;;4.10;99.90;;;;;;5069085;28;20086;-83
2021/12/10 03:24:32;;;;;;;4.43;3.53;;;4.20;99.90;;;;;;5092862;28;20036;-81
2021/12/10 03:27:00;;;;;;;;;;;4.10;99.90;;;;;;5055052;28;20067;-81
2021/12/10 03:29:27;;;;;;;6.57;4.68;;;4.10;99.90;;;;;;5086531;28;19970;-82
2021/12/10 03:31:55;;;;;;;6.03;5.07;;;4.10;99.90;;;;;;5091672;28;20067;-81
2021/12/10 03:34:21;;;;;;;4.40;3.15;;;4.10;99.90;;;;;;5071933;28;20052;-82
2021/12/10 03:36:50;;;;;;;9.32;4.93;;;4.00;99.90;;;;;;5057411;28;20377;-80
2021/12/10 03:39:18;;;;;;;4.60;3.33;;;4.40;99.90;;;;;;5086037;28;20036;-80
2021/12/10 03:41:44;;;;;;;10.18;4.28;;;4.00;99.90;;;;;;5083335;28;20440;-80
2021/12/10 03:44:10;;;;;;;4.10;3.17;;;4.10;99.90;;;;;;5078610;28;20071;-81
2021/12/10 03:46:36;;;;;;;4.38;3.85;;;4.00;99.90;;;;;;5076734;28;20115;-80
2021/12/10 03:49:04;;;;;;;5.20;4.07;;;4.00;99.90;;;;;;5063930;28;20128;-82
2021/12/10 03:51:31;;;;;;;4.78;3.67;;;4.00;99.90;;;;;;5073001;28;20032;-81
2021/12/10 03:53:58;;;;;;;6.10;3.92;;;3.90;99.90;;;;;;5083292;28;20047;-82
2021/12/10 03:56:26;;;;;;;7.68;4.03;;;4.00;99.90;;;;;;5082913;28;20441;-81
2021/12/10 03:58:54;;;;;;;8.85;5.25;;;4.00;99.90;;;;;;5085190;28;20059;-80
2021/12/10 04:01:25;;;;;;;12.52;3.33;;;3.90;99.90;;;;;;5085041;28;20048;-82
2021/12/10 04:03:53;;;;;;;6.13;4.80;;;3.90;99.90;;;;;;5084966;28;20040;-81
2021/12/10 04:06:20;;;;;;;5.35;3.88;;;3.90;99.90;;;;;;5072667;28;20047;-80
2021/12/10 04:08:46;;;;;;;8.57;4.65;;;3.90;99.90;;;;;;5081181;28;20032;-79
2021/12/10 04:11:15;;;;;;;13.38;4.65;;;3.90;99.90;;;;;;5082804;28;20048;-81
2021/12/10 04:13:42;;;;;;;4.88;3.13;;;3.90;99.90;;;;;;5076556;28;20636;-80
2021/12/10 04:16:08;;;;;;;5.00;4.50;;;4.00;99.90;;;;;;5090166;28;20476;-82
2021/12/10 04:18:36;;;;;;;7.95;3.80;;;3.90;99.90;;;;;;5090147;28;20110;-83
2021/12/10 04:21:04;;;;;;;9.02;4.20;;;4.20;99.90;;;;;;5088606;28;20048;-81
2021/12/10 04:23:29;;;;;;;3.80;3.28;;;4.00;99.90;;;;;;5091189;28;20051;-80
2021/12/10 04:25:55;;;;;;;8.75;4.75;;;3.90;99.90;;;;;;5079801;28;20116;-80
2021/12/10 04:28:22;;;;;;;7.68;6.05;;;4.00;99.90;;;;;;5073521;28;20052;-78
2021/12/10 04:30:49;;;;;;;13.70;4.93;;;3.90;99.90;;;;;;5077967;28;20048;-81
2021/12/10 04:33:21;;;;;;;5.03;4.22;;;4.10;99.90;;;;;;5085912;28;20044;-80
2021/12/10 04:35:49;;;;;;;9.30;4.15;;;3.90;99.90;;;;;;5077849;28;20048;-80
2021/12/10 04:38:16;;;;;;;9.75;5.43;;;4.00;99.90;;;;;;5086780;28;20075;-81
2021/12/10 04:40:47;;;;;;;6.72;3.42;;;4.00;99.90;;;;;;5074204;28;20394;-79
2021/12/10 04:43:12;;;;;;;5.85;4.88;;;3.90;99.90;;;;;;5086194;28;20063;-80
2021/12/10 04:45:38;;;;;;;9.75;5.32;;;3.80;99.90;;;;;;5087356;28;20052;-82
2021/12/10 04:48:04;;;;;;;10.85;7.38;;;3.80;99.90;;;;;;5089741;28;20036;-82
2021/12/10 04:50:31;;;;;;;8.05;6.05;;;3.80;99.90;;;;;;5064599;28;20048;-80
2021/12/10 04:52:58;;;;;;;9.40;5.45;;;3.70;99.90;;;;;;5084029;28;20393;-81
2021/12/10 04:55:24;;;;;;;8.27;5.28;;;4.00;99.90;;;;;;5081525;28;20059;-80
2021/12/10 04:57:50;;;;;;;6.97;4.65;;;3.60;99.90;;;;;;5065296;28;20120;-84
2021/12/10 05:00:24;;;;;;;9.20;4.97;;;3.50;99.90;;;;;;5051521;28;20572;-82
2021/12/10 05:02:50;;;;;;;9.60;5.97;;;3.40;99.90;;;;;;5082290;28;20371;-82
2021/12/10 05:05:17;;;;;;;6.07;5.38;;;3.30;99.90;;;;;;5090941;28;20040;-81
2021/12/10 05:07:42;;;;;;;;;;;3.20;99.90;;;;;;5058155;28;20074;-81
2021/12/10 05:10:11;;;;;;;6.93;4.53;;;4.00;99.90;;;;;;5084567;28;19920;-80
2021/12/10 05:12:37;;;;;;;6.88;5.20;;;3.00;99.90;;;;;;5078230;28;20094;-80
2021/12/10 05:15:07;;;;;;;6.32;4.85;;;2.90;99.90;;;;;;5086336;28;20055;-80
2021/12/10 05:17:34;;;;;;;6.05;4.30;;;2.80;99.90;;;;;;5090223;28;20051;-81
2021/12/10 05:20:06;;;;;;;5.45;3.42;;;2.80;99.90;;;;;;5048067;28;20043;-82
2021/12/10 05:22:32;;;;;;;15.20;5.70;;;2.70;99.90;;;;;;5090366;28;20055;-81
2021/12/10 05:24:58;;;;;;;7.60;6.88;;;2.60;99.90;;;;;;5088430;28;20404;-81
2021/12/10 05:27:24;;;;;;;5.88;4.18;;;2.50;99.90;;;;;;5074251;28;20056;-82
2021/12/10 05:29:50;;;;;;;5.28;4.13;;;2.50;99.90;;;;;;5082986;28;20036;-80
2021/12/10 05:32:17;;;;;;;6.45;3.83;;;2.40;99.90;;;;;;5083878;28;20032;-81
2021/12/10 05:34:44;;;;;;;6.10;5.05;;;2.40;99.90;;;;;;5089838;28;20062;-81
2021/12/10 05:37:10;;;;;;;4.57;3.67;;;2.20;99.90;;;;;;5076013;28;20386;-81
2021/12/10 05:39:36;;;;;;;8.50;5.57;;;2.20;99.90;;;;;;5083344;28;20101;-81
2021/12/10 05:42:04;;;;;;;5.43;3.85;;;2.40;99.90;;;;;;5077390;28;20115;-82
2021/12/10 05:44:30;;;;;;;5.97;3.60;;;2.10;99.90;;;;;;5080283;28;21063;-82
2021/12/10 05:46:58;;;;;;;11.80;6.03;;;2.10;99.90;;;;;;5086227;28;20048;-82
2021/12/10 05:49:24;;;;;;;8.13;4.18;;;2.00;99.90;;;;;;5086082;28;20042;-83
2021/12/10 05:51:50;;;;;;;;;;;2.00;99.90;;;;;;5088646;28;20040;-82
2021/12/10 05:54:15;;;;;;;6.10;4.97;;;1.90;99.90;;;;;;5082577;28;19939;-83
2021/12/10 05:56:41;;;;;;;4.97;4.43;;;1.90;99.90;;;;;;5087380;28;20040;-82
2021/12/10 05:59:07;;;;;;;10.93;4.45;;;2.50;99.90;;;;;;5079242;28;20032;-82
2021/12/10 06:01:33;;;;;;;7.70;4.13;;;1.80;99.90;;;;;;5081569;28;20469;-81
2021/12/10 06:03:59;;;;;;;6.93;3.58;;;1.80;99.90;;;;;;5080335;28;20044;-82
2021/12/10 06:06:28;;;;;;;6.35;4.50;;;1.90;99.90;;;;;;5070164;28;20101;-81
2021/12/10 06:08:56;;;;;;;5.53;3.92;;;1.90;99.90;;;;;;5078410;28;20494;-82
2021/12/10 06:11:22;;;;;;;17.50;5.95;;;1.80;99.90;;;;;;5092446;28;20036;-81
2021/12/10 06:13:49;;;;;;;12.57;5.50;;;1.90;99.90;;;;;;5086645;28;20109;-81
2021/12/10 06:16:15;;;;;;;;;;;1.80;99.90;;;;;;5076618;28;20041;-82
2021/12/10 06:18:41;;;;;;;7.13;4.90;;;1.80;99.90;;;;;;5084419;28;19923;-82
2021/12/10 06:21:07;;;;;;;9.70;5.65;;;1.80;99.90;;;;;;5093251;28;20058;-82
2021/12/10 06:23:33;;;;;;;3.80;3.25;;;1.90;99.90;;;;;;5075690;28;20083;-82
2021/12/10 06:25:59;;;;;;;5.85;4.55;;;2.10;99.90;;;;;;5078637;28;20043;-82
2021/12/10 06:28:25;;;;;;;4.85;3.95;;;1.80;99.90;;;;;;5088639;28;20047;-81
2021/12/10 06:30:52;;;;;;;9.15;3.45;;;2.30;99.90;;;;;;5087462;28;20477;-82
2021/12/10 06:33:22;;;;;;;4.30;3.90;;;1.80;99.90;;;;;;5083254;28;20043;-82
2021/12/10 06:35:51;;;;;;;13.85;5.85;;;1.80;99.90;;;;;;5080373;28;20040;-80
2021/12/10 06:38:19;;;;;;;5.82;5.28;;;1.90;99.90;;;;;;5085233;28;20036;-83
2021/12/10 06:40:45;;;;;;;7.07;4.93;;;2.00;99.90;;;;;;5074504;28;20032;-82
2021/12/10 06:43:12;;;;;;;4.65;3.33;;;2.00;99.90;;;;;;5085648;28;20105;-81
2021/12/10 06:45:39;;;;;;;7.57;5.10;;;2.20;99.90;;;;;;5080891;28;20120;-81
2021/12/10 06:48:07;;;;;;;12.02;5.40;;;2.20;99.90;;;;;;5093365;28;20101;-82
2021/12/10 06:50:37;;;;;;;5.20;4.75;;;2.20;99.90;;;;;;5084650;28;20036;-82
2021/12/10 06:53:03;;;;;;;7.20;5.28;;;2.30;99.90;;;;;;5076183;28;20477;-82
2021/12/10 06:55:31;;;;;;;9.25;5.07;;;2.30;99.90;;;;;;5083960;28;20055;-82
2021/12/10 06:57:58;;;;;;;4.68;4.28;;;2.30;99.90;;;;;;5068556;28;20123;-81
2021/12/10 07:00:41;;;;;;;4.55;2.28;;;2.30;99.90;;;;;;5081286;28;20052;-81
2021/12/10 07:03:09;;;;;;;10.25;5.45;;;2.20;99.90;;;;;;5090688;28;20055;-82
2021/12/10 07:05:35;;;;;;;6.20;4.13;;;2.20;99.90;;;;;;5068839;28;20058;-82
2021/12/10 07:08:00;;;;;;;;;;;2.10;99.90;;;;;;5056954;28;20041;-83
2021/12/10 07:10:26;;;;;;;8.40;4.85;;;2.00;99.90;;;;;;5069658;28;20318;-82
2021/12/10 07:12:52;;;;;;;6.20;3.97;;;3.00;99.90;;;;;;5074975;28;20047;-81
2021/12/10 07:15:18;;;;;;;3.47;2.83;;;2.00;99.90;;;;;;5065830;28;20048;-83
2021/12/10 07:17:46;;;;;;;5.50;3.65;;;1.90;99.90;;;;;;5087431;28;20088;-81
2021/12/10 07:20:15;;;;;;;17.80;5.13;;;1.80;99.90;;;;;;5084079;28;20127;-81
2021/12/10 07:22:41;;;;;;;5.22;4.72;;;1.70;99.90;;;;;;5080924;28;20048;-84
2021/12/10 07:25:08;;;;;;;9.82;5.20;;;1.60;99.90;;;;;;5083964;28;20040;-81
2021/12/10 07:27:34;;;;;;;2.67;2.38;;;1.50;99.90;;;;;;5081200;28;20048;-82
2021/12/10 07:30:00;;;;;;;5.38;4.90;;;1.50;99.90;;;;;;5073307;28;20085;-81
2021/12/10 07:32:25;;;;;;;4.72;3.30;;;1.40;99.90;;;;;;5081706;28;20052;-81
2021/12/10 07:34:51;;;;;;;6.15;3.20;;;1.40;99.90;;;;;;5070478;28;20032;-81
2021/12/10 07:37:17;;;;;;;5.40;3.83;;;1.30;99.90;;;;;;5086134;28;20040;-82
2021/12/10 07:39:43;;;;;;;5.22;4.72;;;1.30;99.90;;;;;;5084233;28;20047;-81
2021/12/10 07:42:10;;;;;;;8.48;3.22;;;1.20;99.90;;;;;;5090161;28;20097;-82
2021/12/10 07:44:37;;;;;;;8.45;4.78;;;1.20;99.90;;;;;;5063209;28;20097;-82
2021/12/10 07:47:13;;;;;;;6.38;3.38;;;1.20;99.90;;;;;;5086615;28;20036;-82
2021/12/10 07:49:41;;;;;;;8.23;4.15;;;1.10;99.90;;;;;;5075570;28;20047;-82
2021/12/10 07:52:15;;;;;;;16.98;3.17;;;1.50;99.90;;;;;;5085123;28;20040;-82
2021/12/10 07:54:43;;;;;;;5.75;3.78;;;1.10;99.90;;;;;;5089619;28;20494;-82
2021/12/10 07:57:09;;;;;;;2.53;2.30;;;1.00;99.90;;;;;;5076184;28;20118;-83
2021/12/10 07:59:35;;;;;;;3.88;3.25;;;1.00;99.90;;;;;;5073664;28;20043;-82
2021/12/10 08:02:04;;;;;;;7.28;3.00;;;1.00;99.90;;;;;;5056871;28;20044;-82
2021/12/10 08:04:30;;;;;;;6.55;3.97;;;0.90;99.90;;;;;;5074640;28;20046;-80
2021/12/10 08:06:56;;;;;;;9.00;3.40;;;1.00;99.90;;;;;;5071244;28;20075;-81
2021/12/10 08:09:22;;;;;;;6.10;3.53;;;0.80;99.90;;;;;;5089968;28;20498;-82
2021/12/10 08:11:47;;;;;;;6.60;3.13;;;0.80;99.90;;;;;;5076658;28;20127;-82
2021/12/10 08:14:13;;;;;;;9.13;3.47;;;0.80;99.90;;;;;;5084169;28;20032;-82
2021/12/10 08:16:40;;;;;;;3.33;2.95;;;0.90;99.90;;;;;;5074446;28;20443;-82
2021/12/10 08:19:06;;;;;;;5.03;3.60;;;0.90;99.90;;;;;;5056535;28;20041;-83
2021/12/10 08:21:33;;;;;;;3.05;2.78;;;0.80;99.90;;;;;;5078639;28;20489;-82
2021/12/10 08:24:00;;;;;;;9.10;3.97;;;0.80;99.90;;;;;;5078374;28;20048;-82
2021/12/10 08:26:26;;;;;;;2.35;1.20;;;0.80;99.90;;;;;;5078097;28;20144;-82
2021/12/10 08:28:53;;;;;;;5.20;3.15;;;0.80;99.90;;;;;;5057275;28;20048;-83
2021/12/10 08:31:19;;;;;;;4.68;2.38;;;0.80;99.90;;;;;;5070624;28;20505;-83
2021/12/10 08:33:47;;;;;;;6.32;3.03;;;0.90;99.90;;;;;;5084579;28;20051;-83
2021/12/10 08:36:15;;;;;;;4.65;4.03;;;0.90;99.90;;;;;;5064186;28;20048;-82
2021/12/10 08:38:41;;;;;;;2.88;1.98;;;0.90;99.90;;;;;;5066159;28;20626;-83
2021/12/10 08:41:15;;;;;;;5.55;2.47;;;0.90;99.90;;;;;;5083341;28;20032;-80
2021/12/10 08:43:41;;;;;;;2.53;2.13;;;0.90;99.90;;;;;;5071466;28;20120;-80
2021/12/10 08:46:09;;;;;;;2.75;2.10;;;1.00;99.90;;;;;;5074716;28;20192;-79
2021/12/10 08:48:35;;;;;;;4.97;2.90;;;1.00;99.90;;;;;;5060446;28;20111;-79
2021/12/10 08:51:06;;;;;;;3.28;2.80;;;1.10;99.90;;;;;;5088007;28;20051;-80
2021/12/10 08:53:32;;;;;;;2.53;2.33;;;1.10;99.90;;;;;;5074516;28;20396;-81
2021/12/10 08:55:58;;;;;;;4.05;2.55;;;1.20;99.90;;;;;;5073417;28;20052;-81
2021/12/10 08:58:26;;;;;;;5.43;2.42;;;1.20;99.90;;;;;;5090285;28;20040;-81
2021/12/10 09:01:07;;;;;;;3.10;2.80;;;1.30;99.90;;;;;;5077673;28;20421;-80
2021/12/10 09:03:33;;;;;;;3.47;3.17;;;1.30;99.90;;;;;;5082869;28;20040;-79
2021/12/10 09:06:00;;;;;;;4.68;4.25;;;1.40;99.90;;;;;;5075428;28;20110;-81
2021/12/10 09:08:26;;;;;;;1.90;1.75;;;1.40;99.90;;;;;;5082527;28;20036;-80
2021/12/10 09:10:52;;;;;;;5.53;3.03;;;1.50;99.90;;;;;;5056098;28;20389;-81
2021/12/10 09:13:20;;;;;;;2.00;1.80;;;1.50;99.90;;;;;;5081255;28;20048;-80
2021/12/10 09:15:57;;;;;;;5.90;2.42;;;1.70;99.90;;;;;;5082669;28;20036;-80
2021/12/10 09:18:24;;;;;;;4.43;1.98;;;1.60;99.90;;;;;;5089539;28;20079;-78
2021/12/10 09:20:52;;;;;;;9.93;3.38;;;1.70;99.90;;;;;;5078293;28;20086;-79
2021/12/10 09:23:22;;;;;;;4.28;2.65;;;2.00;99.90;;;;;;5085198;28;20041;-81
2021/12/10 09:25:49;;;;;;;6.00;2.75;;;1.80;99.90;;;;;;5074217;28;20118;-79
2021/12/10 09:28:16;;;;;;;3.55;2.67;;;1.80;99.90;;;;;;5069336;28;20078;-81
2021/12/10 09:30:48;;;;;;;2.92;2.63;;;1.90;99.90;;;;;;5069649;28;20059;-79
2021/12/10 09:33:14;;;;;;;5.07;3.47;;;2.00;99.90;;;;;;5079358;28;20079;-78
2021/12/10 09:35:40;;;;;;;;;;;2.30;99.90;;;;;;5070846;28;20046;-77
2021/12/10 09:38:07;;;;;;;5.80;3.00;;;2.00;99.90;;;;;;5076662;28;20301;-80
2021/12/10 09:40:40;;;;;;;2.22;1.88;;;2.10;99.90;;;;;;5087171;28;20045;-79
2021/12/10 09:43:08;;;;;;;5.07;2.90;;;2.10;99.90;;;;;;5085499;28;20052;-78
2021/12/10 09:45:36;;;;;;;5.68;4.13;;;2.20;99.90;;;;;;5078423;28;20115;-80
2021/12/10 09:48:05;;;;;;;2.80;2.13;;;2.20;99.90;;;;;;5090813;28;20462;-79
2021/12/10 09:50:37;;;;;;;6.80;2.90;;;2.20;99.90;;;;;;5096202;28;20119;-80
2021/12/10 09:53:05;;;;;;;4.13;2.75;;;2.20;99.90;;;;;;5079905;28;20386;-84
2021/12/10 09:55:31;;;;;;;5.57;2.83;;;2.20;99.90;;;;;;5078017;28;20044;-84
2021/12/10 09:57:57;;;;;;;;;;;2.30;99.90;;;;;;5067369;28;20036;-80
2021/12/10 10:00:38;;;;;;;5.70;4.30;;;2.30;99.90;;;;;;5086109;28;19920;-84
2021/12/10 10:03:08;;;;;;;3.85;2.58;;;2.40;99.90;;;;;;5087407;28;20649;-79
2021/12/10 10:05:34;;;;;;;3.05;2.75;;;3.00;99.90;;;;;;5081148;28;20115;-81
2021/12/10 10:08:06;;;;;;;5.88;3.22;;;2.50;99.90;;;;;;5071626;28;20126;-81
2021/12/10 10:10:34;;;;;;;6.97;3.53;;;2.50;99.90;;;;;;5079911;28;20037;-82
2021/12/10 10:13:01;;;;;;;5.22;2.35;;;2.60;99.90;;;;;;5061443;28;20490;-81
2021/12/10 10:15:31;;;;;;;5.05;3.85;;;2.70;99.90;;;;;;5088858;28;20131;-81
2021/12/10 10:18:00;;;;;;;6.50;3.90;;;2.80;99.90;;;;;;5071852;28;20032;-81
2021/12/10 10:20:28;;;;;;;1.77;1.67;;;2.90;99.90;;;;;;5088857;28;20044;-81
2021/12/10 10:22:54;;;;;;;4.57;3.33;;;3.00;99.90;;;;;;5083955;28;20044;-82
2021/12/10 10:25:23;;;;;;;5.35;1.98;;;3.10;99.90;;;;;;5093977;28;20043;-81
2021/12/10 10:27:49;;;;;;;2.53;2.33;;;3.10;99.90;;;;;;5080675;28;20585;-83
2021/12/10 10:30:30;;;;;;;2.40;2.08;;;3.20;99.90;;;;;;5094771;28;20040;-83
2021/12/10 10:32:58;;;;;;;6.47;3.30;;;3.30;99.90;;;;;;5091651;28;20051;-81
2021/12/10 10:35:30;;;;;;;5.00;2.55;;;3.40;99.90;;;;;;5087330;28;20060;-82
2021/12/10 10:37:58;;;;;;;2.85;1.63;;;3.40;99.90;;;;;;5079741;28;20041;-81
2021/12/10 10:40:29;;;;;;;4.43;2.72;;;3.50;99.90;;;;;;5080502;28;20098;-85
2021/12/10 10:42:56;;;;;;;3.00;2.53;;;3.50;99.90;;;;;;5085375;28;20048;-83
2021/12/10 10:45:23;;;;;;;;;;;3.60;99.90;;;;;;5085458;28;20481;-81
2021/12/10 10:47:51;;;;;;;2.85;2.53;;;3.70;99.90;;;;;;5093261;28;19916;-83
2021/12/10 10:50:51;;;;;;;2.08;1.98;;;3.70;99.90;;;;;;5092973;28;20057;-82
2021/12/10 10:53:21;;;;;;;3.30;2.92;;;3.80;99.90;;;;;;5068559;28;20032;-82
2021/12/10 10:56:08;;;;;;;2.85;1.73;;;3.90;99.90;;;;;;5107702;28;20039;-82
2021/12/10 10:58:43;;;;;;;4.07;2.38;;;3.90;99.90;;;;;;5067787;28;20036;-81
2021/12/10 11:01:34;;;;;;;4.28;2.72;;;3.90;99.90;;;;;;5082023;28;20039;-82
2021/12/10 11:04:14;;;;;;;2.78;2.00;;;4.00;99.90;;;;;;5088642;28;20040;-83
2021/12/10 11:06:44;;;;;;;3.92;3.35;;;4.00;99.90;;;;;;5077770;28;20047;-82
2021/12/10 11:09:13;;;;;;;8.90;2.45;;;4.10;99.90;;;;;;5092812;28;20051;-82
2021/12/10 11:11:45;;;;;;;2.13;1.98;;;4.10;99.90;;;;;;5066859;28;20482;-83
2021/12/10 11:14:23;;;;;;;2.38;2.17;;;4.10;99.90;;;;;;5085865;28;20037;-82
2021/12/10 11:16:52;;;;;;;3.92;2.67;;;4.20;99.90;;;;;;5086304;28;20047;-83
2021/12/10 11:19:24;;;;;;;2.40;1.80;;;4.20;99.90;;;;;;5097983;28;20051;-83
2021/12/10 11:22:03;;;;;;;4.65;2.67;;;4.20;99.90;;;;;;5088060;28;20048;-86
2021/12/10 11:24:45;;;;;;;2.00;1.75;;;4.30;99.90;;;;;;5061396;28;20124;-84
2021/12/10 11:27:17;;;;;;;2.50;2.25;;;4.30;99.90;;;;;;5085844;28;20071;-82
2021/12/10 11:30:01;;;;;;;3.80;2.30;;;4.30;99.90;;;;;;5075837;28;20054;-81
2021/12/10 11:32:38;;;;;;;2.17;1.98;;;4.30;99.90;;;;;;5092490;28;20385;-82
2021/12/10 11:35:13;;;;;;;1.95;1.35;;;4.20;99.90;;;;;;5086740;28;20547;-85
2021/12/10 11:37:59;;;;;;;3.08;1.95;;;4.20;99.90;;;;;;5090505;28;20085;-85
2021/12/10 11:40:51;;;;;;;1.65;1.10;;;4.20;99.90;;;;;;5092143;28;20044;-82
2021/12/10 11:48:37;;;;;;;2.72;2.50;;;4.20;99.90;;;;;;5076829;28;20053;-82
2021/12/10 11:51:05;;;;;;;3.83;2.33;;;4.10;99.90;;;;;;5077980;28;20131;-82
2021/12/10 11:54:00;;;;;;;2.17;1.58;;;4.10;99.90;;;;;;5065027;28;20059;-82
2021/12/10 11:56:40;;;;;;;5.22;2.03;;;4.10;99.90;;;;;;5073528;28;20048;-82
2021/12/10 11:59:08;;;;;;;2.95;1.88;;;4.10;99.90;;;;;;5086545;28;20077;-83
2021/12/10 12:01:45;;;;;;;4.50;2.15;;;4.40;99.90;;;;;;5083120;28;20552;-82
2021/12/10 12:04:22;;;;;;;3.03;2.30;;;4.10;99.90;;;;;;5093007;28;20058;-82
2021/12/10 12:07:08;;;;;;;3.25;1.63;;;4.20;99.90;;;;;;5075904;28;20370;-83
2021/12/10 12:09:44;;;;;;;3.50;2.88;;;4.20;99.90;;;;;;5089970;28;20064;-83
2021/12/10 12:12:16;;;;;;;2.78;2.58;;;4.20;99.90;;;;;;5090636;28;20032;-83
2021/12/10 12:14:50;;;;;;;4.07;1.92;;;4.20;99.90;;;;;;5062244;28;20032;-87
2021/12/10 12:17:42;;;;;;;3.03;2.72;;;4.30;99.90;;;;;;5071965;28;20076;-86
2021/12/10 12:20:26;;;;;;;3.05;2.53;;;4.30;99.90;;;;;;5085560;28;20131;-84
2021/12/10 12:26:10;;;;;;;3.28;2.25;;;4.30;99.90;;;;;;5089249;28;20734;-83
2021/12/10 12:28:49;;;;;;;2.38;1.75;;;4.30;99.90;;;;;;5064944;28;20101;-84
2021/12/10 12:31:24;;;;;;;2.13;1.95;;;4.30;99.90;;;;;;5085625;28;20124;-83
2021/12/10 12:34:09;;;;;;;2.25;1.85;;;4.40;99.90;;;;;;5080264;28;20044;-82
2021/12/10 12:37:00;;;;;;;2.05;1.60;;;4.40;99.90;;;;;;5068258;28;20040;-83
2021/12/10 12:39:36;;;;;;;2.13;1.95;;;4.40;99.90;;;;;;5080184;28;20494;-82
2021/12/10 12:42:16;;;;;;;2.63;2.40;;;4.70;99.90;;;;;;5080414;28;20040;-83
2021/12/10 12:44:42;;;;;;;3.60;2.13;;;4.40;99.90;;;;;;5091510;28;20365;-83
2021/12/10 12:47:14;;;;;;;3.67;2.28;;;4.30;99.90;;;;;;5074120;28;20123;-82
2021/12/10 12:49:48;;;;;;;2.17;2.03;;;4.40;99.90;;;;;;5064593;28;20041;-83
2021/12/10 12:52:23;;;;;;;5.40;2.35;;;4.40;99.90;;;;;;5085647;28;20050;-81
2021/12/10 12:55:07;;;;;;;2.63;2.42;;;4.30;99.90;;;;;;5076116;28;20067;-82
2021/12/10 12:57:39;;;;;;;1.73;1.63;;;4.20;99.90;;;;;;5084569;28;20494;-82
2021/12/10 13:00:12;;;;;;;2.65;1.85;;;4.10;99.90;;;;;;5066175;28;20090;-81
2021/12/10 13:02:38;;;;;;;2.10;1.90;;;4.00;99.90;;;;;;5076991;28;20136;-83
2021/12/10 13:05:05;;;;;;;3.15;2.22;;;4.00;99.90;;;;;;5078031;28;20075;-83
2021/12/10 13:07:31;;;;;;;3.90;2.50;;;3.90;99.90;;;;;;5071629;28;20036;-82
2021/12/10 13:10:01;;;;;;;2.50;1.92;;;3.90;99.90;;;;;;5063027;28;20036;-81
2021/12/10 13:12:42;;;;;;;3.72;2.50;;;3.90;99.90;;;;;;5059094;28;20063;-82
2021/12/10 13:15:21;;;;;;;10.77;3.30;;;3.90;99.90;;;;;;5077923;28;20039;-83
2021/12/10 13:17:55;;;;;;;2.10;1.60;;;3.80;99.90;;;;;;5092986;28;20035;-82
2021/12/10 13:20:30;;;;;;;2.83;1.67;;;3.80;99.90;;;;;;5085230;28;20048;-83
2021/12/10 13:22:59;;;;;;;2.60;2.08;;;4.00;99.90;;;;;;5087555;28;20426;-83
2021/12/10 13:25:27;;;;;;;3.95;2.17;;;3.70;99.90;;;;;;5091798;28;20393;-83
2021/12/10 13:27:57;;;;;;;2.53;2.33;;;3.60;99.90;;;;;;5076452;28;20461;-82